Ponderosa High School (Parker), Colorado
Current Conditions -  °F | °C
As of 3:53 PM on Wednesday 17 Dec 2014 (Local Time) from KAPA Reporting Station
Overcast Overcast  
Wind Chill: 34°   Ceiling: 11000
Heat Index: 39°   Visibility: 10mi
Dew Point: 26°   Wind: 7mph
Humidity: 60%   Direction: 350°N
Pressure: 29.9"   Gusts: NA
Location:  39.43627°N, 104.7562°W
Report Text: KAPA 172253Z 35006KT 10SM FEW070 BKN110 OVC150 04/M03 A2990 RMK AO2 SLP145 MTNS OBSCD DSNT NW-N T00391033
Loading
Personal Weather Stations






























Interactive Weather Map New forecast layout! Learn more

10-Day Weather Forecast

Advertisements
Track Severe Weather on mobile